• Join FlightAware (Why Join?)
  • Login
  • US Flag 
12:21PM EDT


 

Airport Tracker/Info


-or-


 

Live Flight TrackerFlight Track Log ✈ SWA3944 ✈ 11-May-2013 ✈ KPIT - KMDW

Flight Track Log - Related Links

Times and Time Zones

All times are in EDT time to prevent confusion due to time zone crossing. See the SWA3944 flight status page for this flight to view local times or setup timezone preferences in your user account.

Time Position Orientation Groundspeed Altitude Reporting Facility
EDT Latitude Longitude Course Direction KTS MPH feet Rate Location/Type
08:27AM 40.5089 -80.3647 288° West 198 228 5,300  Level Cleveland Center
08:28AM 40.5300 -80.4492 288° West 219 252 8,300 3,420 Climbing Cleveland Center
08:30AM 40.5717 -80.6378 286° West 264 304 15,700 3,600 Climbing Cleveland Center
08:31AM 40.5925 -80.7389 285° West 283 326 19,100 3,180 Climbing Cleveland Center
08:32AM 40.6272 -80.8920 288° West  Level FlightAware Approximate
08:32AM 40.6172 -80.8511 286° West 301 346 22,100  Level Cleveland Center
08:33AM 40.6419 -80.9633 286° West 313 360 24,700 2,640 Climbing Cleveland Center
08:34AM 40.6664 -81.0978 284° West 330 380 27,400 1,560 Climbing Cleveland Center
08:35AM 40.6950 -81.2239 287° West 350 403 27,900 900 Climbing Cleveland Center
08:36AM 40.7272 -81.3667 287° West 389 448 29,300 1,680 Climbing Cleveland Center
08:37AM 40.7639 -81.5125 288° West 417 480 31,300 1,920 Climbing Cleveland Center
08:38AM 40.8044 -81.6364 293° West 422 486 33,200 1,320 Climbing Cleveland Center
08:39AM 40.8511 -81.7744 294° West 415 478 34,000 360 Climbing Cleveland Center
08:40AM 40.8953 -81.9125 293° West 415 478 34,000  Level Cleveland Center
08:41AM 40.9794 -82.0133 318° Northwest 403 464 34,000  Level Cleveland Center
08:42AM 41.0931 -82.1039 329° Northwest 411 473 34,000  Level Cleveland Center
08:43AM 41.1942 -82.1836 329° Northwest 420 483 34,000  Level Cleveland Center
08:44AM 41.2953 -82.2606 330° Northwest 426 490 34,000  Level Cleveland Center
08:45AM 41.3961 -82.3408 329° Northwest 424 488 34,000  Level Cleveland Center
08:46AM 41.4928 -82.4239 327° Northwest 424 488 34,000  Level Cleveland Center
08:47AM 41.5178 -82.5550 284° West 363 418 34,000  Level Cleveland Center
08:48AM 41.4469 -82.6636 229° Southwest 313 360 34,000  Level Cleveland Center
08:49AM 41.3789 -82.7444 222° Southwest 343 395 34,000  Level Cleveland Center
08:50AM 41.3761 -82.8800 268° West 350 403 34,000  Level Cleveland Center
08:51AM 41.3878 -83.0242 276° West 369 425 34,000  Level Cleveland Center
08:52AM 41.3931 -83.1628 273° West 383 441 34,000  Level Cleveland Center
08:53AM 41.4019 -83.3211 274° West 388 447 34,000  Level Cleveland Center
08:54AM 41.4114 -83.4461 276° West 388 447 34,000  Level Cleveland Center
08:55AM 41.4200 -83.5906 275° West 388 447 34,000  Level Cleveland Center
08:56AM 41.4289 -83.7322 275° West 388 447 34,000  Level Cleveland Center
08:57AM 41.4372 -83.8739 275° West 388 447 34,000  Level Cleveland Center
08:58AM 41.4458 -84.0128 275° West 388 447 34,000  Level Cleveland Center
08:59AM 41.4519 -84.1544 273° West 382 440 34,000 -240 Level Cleveland Center
09:01AM 41.4717 -84.4783 275° West 384 442 33,300 -1,200 Descending Chicago Center
09:02AM 41.4803 -84.6456 274° West 379 436 30,100 -1,620 Descending Chicago Center
09:03AM 41.4861 -84.7889 273° West 387 445 30,000 -60 Descending Chicago Center
09:05AM 41.4914 -84.9325 273° West 389 448 30,000  Level Chicago Center
09:06AM 41.4961 -85.0750 273° West 387 445 30,000 -900 Level Chicago Center
09:07AM 41.5011 -85.2181 273° West 384 442 28,200 -2,040 Descending Chicago Center
09:08AM 41.5047 -85.3592 272° West 377 434 25,900 -2,100 Descending Chicago Center
09:09AM 41.5092 -85.5003 272° West 373 429 24,000 -1,320 Descending Chicago Center
09:10AM 41.5136 -85.6408 272° West 374 430 23,300 -840 Descending Chicago Center
09:11AM 41.5178 -85.7792 272° West 374 430 22,300 -1,620 Descending Chicago Center
09:12AM 41.5208 -85.9122 272° West 365 420 20,000 -2,340 Descending Chicago Center
09:13AM 41.5253 -86.0397 273° West 350 403 17,600 -2,340 Descending Chicago Center
09:14AM 41.5239 -86.1625 269° West 337 388 15,300 -2,520 Descending Chicago Center
09:15AM 41.5231 -86.3078 270° West 329 379 12,500 -2,100 Descending Chicago Center
09:16AM 41.5225 -86.4244 270° West 319 367 11,000 -1,260 Descending Chicago Center
09:17AM 41.5214 -86.5392 269° West 312 359 10,000 -540 Descending Chicago Center
09:18AM 41.5606 -86.6356 299° West 323 372 9,900 -600 Descending Chicago Center
09:19AM 41.6286 -86.6889 330° Northwest 290 334 8,800 -1,080 Descending Chicago Center
09:20AM 41.6864 -86.7453 324° Northwest 277 319 7,700 -1,380 Descending Chicago Center
09:21AM 41.6508 -86.8492 245° Southwest 260 299 6,000 -840 Descending Chicago Center
09:22AM 41.6267 -86.9356 250° West 252 290 6,000  Level Chicago Center
09:23AM 41.6244 -87.0292 268° West 251 289 6,000  Level Chicago Center
09:24AM 41.6186 -87.1219 265° West 251 289 6,000 -240 Level Chicago Center
09:25AM 41.6167 -87.2000 268° West 254 292 5,600 -1,200 Descending Chicago TRACON
09:26AM 41.6000 -87.2833 255° West 255 293 4,100 -840 Descending Chicago TRACON
09:27AM 41.6000 -87.3833 270° West 250 288 4,000 -120 Descending Chicago TRACON
09:27AM 41.5989 -87.3997 265° West 251 289 4,000  Level Chicago Center
09:28AM 41.5992 -87.4958 270° West 236 272 4,000  Level Chicago Center
09:29AM 41.6408 -87.5497 316° Northwest 218 251 4,000 -180 Level Chicago Center
09:30AM 41.6747 -87.5997 312° West 201 231 3,700 -540 Descending Chicago Center
09:31AM 41.7058 -87.6400 316° Northwest 179 206 2,900 -840 Descending Chicago Center
09:32AM 41.7317 -87.6775 313° West 159 183 2,100 -780 Descending Chicago Center
09:33AM 41.7547 -87.7106 313° West 140 161 1,400 -540 Descending Chicago Center
09:34AM 41.7819 -87.7492 313° West 134 154 1,000 -420 Descending Chicago Center
09:36AM 41.7833 -87.7500 334° Northwest  Level FlightAware Approximate